Terminal Aerodrome Forecast
Issued by NWS

Home | Current Version | Previous Version | Text Only | Print | Product List | Glossary On
Versions: 1 2 3 4 5 6 7 8 9 10 11 12 13 14 15 16 17 18 19 20 21 22 23 24 25
000
FTUS41 KBUF 221120
TAFJHW
TAF
KJHW 221120Z 2212/2312 20010KT P6SM SCT040 SCT120
     FM221600 22013KT 3SM TSRA BKN035CB
     FM221900 22015G23KT P6SM SCT040 BKN200
     FM222100 23015G25KT P6SM VCTS BKN040CB
     FM230100 29010KT P6SM SCT040 SCT200
      AMD LTD TO CLD VIS AND WIND=

USA.gov is the U.S. government's official web portal to all federal, state and local government web resources and services.